Portada
METAR-TAF:

METAR-TAF

Aeroports :

Aeroport de Kuito

Kuito, Angola

latitud: 12-24-15S, longitud: 16-56-55E, altitud: 1712 m

Observació

L'informe es va fer fa 10 hores i 13 minuts, a les 08:00 UTC
Vent 8 kt del Nord
Temperatura 22°C
Humitat 65%
Pressió 1022 hPa
Visibilitat 10 km o més
Escasses núvols a una alçada de 4500 ft

METAR: FNKU 220800Z 36008KT 9999 FEW045 22/15 Q1022

Hora: 19:13 (18:13 UTC)

Pronòstic

L'informe es va fer fa 7 hores i 13 minuts, a les 11:00 UTC
Pronòstic vàlid del 22 a les 12 UTC al 22 a les 24 UTC
Vent 3 kt amb direcció variable
Visibilitat: 9000 m
Núvols disperses a una alçada de 1800 ft
Cel ennuvolat a una alçada de 4000 ft
Temporalment
l' 22 a les 15 UTC al 22 a les 19 UTC
Vent 4 kt del Nord/Nord-Est
Visibilitat: 7000 m
Escasses núvols a una alçada de 1500 ft
Cel ennuvolat a una alçada de 2500 ft
plugim, pluja

TAF: FNKU 221100Z 2212/2224 VRB03KT 9000 SCT018 BKN040 TEMPO 2215/2219 03004KT 7000 DZRA FEW015 BKN025

Observacions i pronòstics meteorològics de més de 4000 aeroports (METAR i TAF).

Les estacions disponibles són els punts grocs i vermells al mapa.

Posi el ratolí al punt desitjat per veure el nom de l'estació.

Feu clic per veure les observacions i els pronòstics meteorològics.

Per canviar el mapa: feu clic els botons verds amb una creu de color negre per apropar; al botó verd amb un guió per allunyar la imatge; o en les fletxes verdes per a mapes adjacents.


METAR-TAF: